Terminal Aerodrome Forecast
Issued by NWS Omaha/Valley, NE

Home | Current Version | Previous Version | Graphics & Text | Print | Product List | Glossary On
Versions: 1 2 3 4 5 6 7 8 9 10 11 12 13 14 15 16 17 18 19 20 21 22 23 24 25 26 27 28 29 30 31 32 33 34 35 36 37 38 39 40 41 42 43 44 45 46 47 48 49 50
663
FTUS43 KOAX 200650 AAA
TAFOFK
TAF AMD
KOFK 200650Z 2007/2106 17006KT 2SM BR OVC003
      TEMPO 2007/2009 3/4SM BR
     FM200900 15004KT 1/2SM FG OVC002
     FM201600 16006KT 2SM BR OVC005
     FM201900 15006KT 4SM BR OVC008
     FM210000 14005KT 3SM BR OVC005=

USA.gov is the U.S. government's official web portal to all federal, state and local government web resources and services.